createdAt,value
2018-10-16T00:01:11.299Z,17.30
2018-10-16T00:03:39.685Z,18.80
2018-10-16T00:06:08.805Z,16.57
2018-10-16T00:08:38.002Z,13.60
2018-10-16T00:11:06.349Z,9.87
2018-10-16T00:13:34.681Z,6.43
2018-10-16T00:16:03.617Z,5.73
2018-10-16T00:18:32.365Z,5.90
2018-10-16T00:21:00.673Z,9.17
2018-10-16T00:23:30.088Z,5.93
2018-10-16T00:25:58.359Z,5.10
2018-10-16T00:28:26.740Z,4.63
2018-10-16T00:30:56.260Z,5.07
2018-10-16T00:33:24.617Z,4.60
2018-10-16T00:35:52.956Z,6.77
2018-10-16T00:38:22.544Z,4.87
2018-10-16T00:40:50.832Z,6.87
2018-10-16T00:43:19.236Z,7.47
2018-10-16T00:45:47.762Z,6.10
2018-10-16T00:48:16.116Z,5.33
2018-10-16T00:50:44.916Z,6.30
2018-10-16T00:53:13.412Z,4.57
2018-10-16T00:55:41.752Z,5.07
2018-10-16T00:58:10.087Z,4.63
2018-10-16T01:00:39.236Z,4.87
2018-10-16T01:03:07.561Z,5.67
2018-10-16T01:05:35.885Z,6.00
2018-10-16T01:08:04.720Z,7.77
2018-10-16T01:10:33.045Z,8.60
2018-10-16T01:13:01.424Z,6.97
2018-10-16T01:15:30.369Z,11.73
2018-10-16T01:17:58.672Z,10.27
2018-10-16T01:20:27.001Z,7.63
2018-10-16T01:22:56.624Z,6.17
2018-10-16T01:25:24.956Z,4.93
2018-10-16T01:27:53.269Z,2.87
2018-10-16T01:30:22.520Z,3.93
2018-10-16T01:32:50.823Z,8.73
2018-10-16T01:35:19.160Z,12.67
2018-10-16T01:37:48.304Z,7.57
2018-10-16T01:40:16.634Z,5.93
2018-10-16T01:42:44.932Z,10.30
2018-10-16T01:45:14.370Z,11.20
2018-10-16T01:47:42.685Z,11.43
2018-10-16T01:50:10.966Z,12.87
2018-10-16T01:52:40.029Z,10.40
2018-10-16T01:55:08.313Z,9.27
2018-10-16T01:57:36.666Z,9.87
2018-10-16T02:00:06.049Z,8.63
2018-10-16T02:02:34.449Z,13.73
2018-10-16T02:05:02.731Z,11.63
2018-10-16T02:07:32.590Z,13.23
2018-10-16T02:10:01.088Z,15.27
2018-10-16T02:12:29.415Z,11.47
2018-10-16T02:14:58.797Z,13.50
2018-10-16T02:17:27.070Z,10.00
2018-10-16T02:19:56.192Z,9.40
2018-10-16T02:22:25.060Z,13.13
2018-10-16T02:24:53.449Z,9.60
2018-10-16T02:27:21.833Z,11.63
2018-10-16T02:29:50.742Z,11.63
2018-10-16T02:32:19.073Z,9.53
2018-10-16T02:34:47.378Z,13.37
2018-10-16T02:37:16.173Z,14.33
2018-10-16T02:39:44.544Z,14.23
2018-10-16T02:42:12.858Z,18.30
2018-10-16T02:44:41.727Z,16.03
2018-10-16T02:47:10.062Z,19.83
2018-10-16T02:49:38.454Z,22.63
2018-10-16T02:52:07.814Z,21.17
2018-10-16T02:54:36.228Z,17.63
2018-10-16T02:57:04.847Z,18.67
2018-10-16T02:59:33.772Z,22.43
2018-10-16T03:02:02.056Z,25.27
2018-10-16T03:04:30.412Z,20.07
2018-10-16T03:06:59.151Z,19.60
2018-10-16T03:09:27.570Z,22.97
2018-10-16T03:11:56.532Z,19.23
2018-10-16T03:14:25.219Z,14.63
2018-10-16T03:16:53.538Z,23.33
2018-10-16T03:19:22.062Z,15.27
2018-10-16T03:21:51.540Z,24.80
2018-10-16T03:24:19.871Z,23.17
2018-10-16T03:26:48.376Z,26.27
2018-10-16T03:29:17.524Z,27.73
2018-10-16T03:31:45.874Z,28.33
2018-10-16T03:34:14.177Z,8.00
2018-10-16T03:36:43.385Z,7.60
2018-10-16T03:39:12.688Z,9.27
2018-10-16T03:41:40.988Z,6.07
2018-10-16T03:44:11.943Z,24.30
2018-10-16T03:46:40.210Z,25.63
2018-10-16T03:49:09.302Z,30.07
2018-10-16T03:51:37.952Z,25.53
2018-10-16T03:54:06.600Z,25.37
2018-10-16T03:56:34.940Z,36.90
2018-10-16T03:59:04.692Z,23.30
2018-10-16T04:01:33.032Z,31.00
2018-10-16T04:04:01.345Z,38.23
2018-10-16T04:06:30.432Z,29.07
2018-10-16T04:08:58.768Z,24.83
2018-10-16T04:11:27.082Z,32.47
2018-10-16T04:13:55.768Z,36.17
2018-10-16T04:16:24.125Z,19.00
2018-10-16T04:18:52.424Z,31.80
2018-10-16T04:21:21.420Z,28.27
2018-10-16T04:23:50.100Z,28.90
2018-10-16T04:26:18.399Z,28.47
2018-10-16T04:28:47.009Z,21.07
2018-10-16T04:31:15.311Z,31.60
2018-10-16T04:33:43.623Z,28.93
2018-10-16T04:36:12.884Z,38.20
2018-10-16T04:38:41.639Z,42.03
2018-10-16T04:41:10.551Z,22.30
2018-10-16T04:43:39.223Z,44.47
2018-10-16T04:46:07.529Z,44.57
2018-10-16T04:48:35.809Z,42.90
2018-10-16T04:51:04.765Z,37.37
2018-10-16T04:53:33.098Z,38.90
2018-10-16T04:56:01.415Z,29.27
2018-10-16T04:58:30.209Z,45.70
2018-10-16T05:00:58.763Z,40.83
2018-10-16T05:03:27.139Z,48.30
2018-10-16T05:05:56.314Z,46.63
2018-10-16T05:08:24.702Z,39.87
2018-10-16T05:10:53.637Z,37.27
2018-10-16T05:13:22.396Z,41.47
2018-10-16T05:15:51.293Z,34.53
2018-10-16T05:18:19.632Z,34.73
2018-10-16T05:21:19.117Z,31.87
2018-10-16T05:24:17.912Z,37.60
2018-10-16T05:26:56.887Z,42.90
2018-10-16T05:29:25.263Z,39.57
2018-10-16T05:31:53.651Z,47.23
2018-10-16T05:34:22.471Z,33.40
2018-10-16T05:36:50.832Z,46.37
2018-10-16T05:39:19.262Z,40.57
2018-10-16T05:41:47.973Z,41.53
2018-10-16T05:44:16.430Z,41.70
2018-10-16T05:46:45.336Z,44.40
2018-10-16T05:49:14.138Z,40.80
2018-10-16T05:51:42.857Z,51.07
2018-10-16T05:54:11.236Z,44.27
2018-10-16T05:56:39.779Z,43.63
2018-10-16T05:59:37.604Z,43.77
2018-10-16T06:02:07.400Z,29.90
2018-10-16T06:04:35.814Z,46.07
2018-10-16T06:07:04.166Z,42.57
2018-10-16T06:09:32.734Z,37.13
2018-10-16T06:12:01.123Z,39.40
2018-10-16T06:14:29.482Z,40.57
2018-10-16T06:16:58.306Z,39.43
2018-10-16T06:19:26.637Z,23.53
2018-10-16T06:21:55.080Z,34.53
2018-10-16T06:24:24.022Z,33.97
2018-10-16T06:26:52.304Z,38.70
2018-10-16T06:29:20.624Z,39.57
2018-10-16T06:31:49.464Z,38.73
2018-10-16T06:34:17.767Z,37.63
2018-10-16T06:36:46.714Z,24.43
2018-10-16T06:39:15.664Z,25.60
2018-10-16T06:41:43.972Z,23.37
2018-10-16T06:44:12.323Z,23.30
2018-10-16T06:46:40.946Z,20.73
2018-10-16T06:49:09.174Z,22.83
2018-10-16T06:51:37.602Z,26.87
2018-10-16T06:54:06.738Z,26.50
2018-10-16T06:56:35.147Z,21.93
2018-10-16T06:59:03.545Z,23.57
2018-10-16T07:01:32.630Z,25.83
2018-10-16T07:04:02.737Z,23.73
2018-10-16T07:06:31.222Z,36.43
2018-10-16T07:09:00.087Z,34.73
2018-10-16T07:11:29.443Z,30.47
2018-10-16T07:13:57.756Z,38.73
2018-10-16T07:16:26.532Z,24.93
2018-10-16T07:18:55.388Z,26.90
2018-10-16T07:21:23.696Z,28.30
2018-10-16T07:23:52.422Z,19.33
2018-10-16T07:26:20.793Z,33.97
2018-10-16T07:28:49.098Z,30.97
2018-10-16T07:31:17.842Z,19.90
2018-10-16T07:33:46.424Z,25.13
2018-10-16T07:36:14.780Z,25.30
2018-10-16T07:38:43.736Z,23.00
2018-10-16T07:41:12.082Z,21.00
2018-10-16T07:43:40.382Z,27.27
2018-10-16T07:46:09.372Z,20.73
2018-10-16T07:48:37.787Z,19.57
2018-10-16T07:51:06.091Z,26.00
2018-10-16T07:53:35.422Z,20.97
2018-10-16T07:56:04.436Z,24.60
2018-10-16T07:58:32.801Z,20.23
2018-10-16T08:01:02.496Z,21.87
2018-10-16T08:03:30.798Z,19.63
2018-10-16T08:05:59.104Z,21.83
2018-10-16T08:08:27.943Z,18.97
2018-10-16T08:10:56.446Z,19.83
2018-10-16T08:13:25.196Z,21.13
2018-10-16T08:15:54.589Z,21.73
2018-10-16T08:18:22.927Z,26.30
2018-10-16T08:20:52.299Z,22.60
2018-10-16T08:23:21.072Z,19.10
2018-10-16T08:25:49.430Z,25.90
2018-10-16T08:28:18.576Z,28.10
2018-10-16T08:30:47.104Z,20.20
2018-10-16T08:33:15.413Z,18.37
2018-10-16T08:35:43.921Z,17.57
2018-10-16T08:39:17.606Z,16.77
2018-10-16T08:44:00.557Z,19.43
2018-10-16T08:46:40.359Z,16.17
2018-10-16T08:49:19.925Z,16.40
2018-10-16T08:51:49.922Z,16.97
2018-10-16T08:54:18.401Z,16.43
2018-10-16T08:56:47.153Z,17.60
2018-10-16T08:59:16.184Z,14.83
2018-10-16T09:01:44.497Z,15.00
2018-10-16T09:04:12.920Z,14.23
2018-10-16T09:06:42.074Z,12.83
2018-10-16T09:09:13.525Z,12.83
2018-10-16T09:11:42.646Z,11.87
2018-10-16T09:14:12.213Z,15.07
2018-10-16T09:16:40.549Z,14.77
2018-10-16T09:19:08.987Z,14.50
2018-10-16T09:21:37.447Z,12.67
2018-10-16T09:24:05.859Z,12.73
2018-10-16T09:26:34.329Z,14.17
2018-10-16T09:29:02.859Z,12.33
2018-10-16T09:31:31.175Z,13.07
2018-10-16T09:33:59.874Z,13.03
2018-10-16T09:36:28.352Z,14.90
2018-10-16T09:38:56.744Z,14.50
2018-10-16T09:41:25.502Z,13.47
2018-10-16T09:43:54.159Z,11.87
2018-10-16T09:46:22.492Z,13.80
2018-10-16T09:48:50.856Z,12.00
2018-10-16T09:51:19.417Z,10.10
2018-10-16T09:53:47.791Z,16.77
2018-10-16T09:56:16.400Z,15.13
2018-10-16T09:58:45.078Z,10.80
2018-10-16T10:01:18.780Z,11.07
2018-10-16T10:03:47.292Z,11.40
2018-10-16T10:06:15.616Z,13.10
2018-10-16T10:08:43.948Z,17.90
2018-10-16T10:11:12.591Z,26.67
2018-10-16T10:13:40.932Z,30.80
2018-10-16T10:16:09.661Z,23.13
2018-10-16T10:18:38.439Z,17.53
2018-10-16T10:21:06.752Z,20.97
2018-10-16T10:23:35.061Z,21.20
2018-10-16T10:26:04.307Z,17.33
2018-10-16T10:28:32.854Z,21.50
2018-10-16T10:31:02.954Z,19.93
2018-10-16T10:33:32.460Z,15.10
2018-10-16T10:36:00.803Z,16.70
2018-10-16T10:38:29.078Z,16.03
2018-10-16T10:40:57.907Z,14.10
2018-10-16T10:43:26.193Z,16.60
2018-10-16T10:45:54.503Z,17.63
2018-10-16T10:48:24.515Z,16.93
2018-10-16T10:50:53.023Z,15.03
2018-10-16T10:53:21.184Z,14.47
2018-10-16T10:55:50.158Z,18.07
2018-10-16T10:58:18.523Z,13.83
2018-10-16T11:00:46.914Z,14.97
2018-10-16T11:03:15.809Z,12.73
2018-10-16T11:05:44.147Z,16.57
2018-10-16T11:08:12.482Z,16.60
2018-10-16T11:10:41.108Z,13.87
2018-10-16T11:13:09.402Z,14.93
2018-10-16T11:15:37.717Z,16.27
2018-10-16T11:18:06.483Z,10.97
2018-10-16T11:20:34.832Z,13.40
2018-10-16T11:23:04.621Z,13.40
2018-10-16T11:25:33.363Z,13.40
2018-10-16T11:28:01.935Z,13.97
2018-10-16T11:30:30.249Z,14.43
2018-10-16T11:32:59.278Z,11.73
2018-10-16T11:35:27.521Z,13.40
2018-10-16T11:37:55.801Z,11.37
2018-10-16T11:40:24.848Z,12.13
2018-10-16T11:42:53.133Z,14.13
2018-10-16T11:45:21.501Z,10.13
2018-10-16T11:47:50.289Z,11.97
2018-10-16T11:50:19.205Z,11.03
2018-10-16T11:52:47.601Z,10.83
2018-10-16T11:55:16.401Z,10.97
2018-10-16T11:57:44.701Z,9.50
2018-10-16T12:00:24.505Z,10.47
2018-10-16T12:02:53.476Z,13.07
2018-10-16T12:05:22.377Z,10.60
2018-10-16T12:07:50.986Z,13.40
2018-10-16T12:10:19.448Z,9.67
2018-10-16T12:12:48.036Z,9.87
2018-10-16T12:15:16.636Z,10.00
2018-10-16T12:18:04.816Z,9.27
2018-10-16T12:20:37.092Z,10.77
2018-10-16T12:23:05.496Z,9.50
2018-10-16T12:25:33.988Z,11.27
2018-10-16T12:28:03.246Z,10.60
2018-10-16T12:30:31.666Z,10.50
2018-10-16T12:33:00.099Z,10.43
2018-10-16T12:35:28.600Z,9.07
2018-10-16T12:37:57.114Z,9.80
2018-10-16T12:40:25.703Z,8.83
2018-10-16T12:42:54.388Z,8.97
2018-10-16T12:45:22.721Z,10.73
2018-10-16T12:47:51.084Z,11.03
2018-10-16T12:50:20.024Z,9.23
2018-10-16T12:52:48.315Z,9.60
2018-10-16T12:55:16.622Z,10.00
2018-10-16T12:57:45.332Z,8.97
2018-10-16T13:00:17.831Z,8.67
2018-10-16T13:02:46.931Z,8.80
2018-10-16T13:05:15.326Z,11.67
2018-10-16T13:07:43.640Z,10.83
2018-10-16T13:10:14.620Z,8.03
2018-10-16T13:12:43.952Z,10.27
2018-10-16T13:15:13.240Z,7.93
2018-10-16T13:17:42.089Z,11.57
2018-10-16T13:20:12.111Z,8.60
2018-10-16T13:22:40.903Z,9.10
2018-10-16T13:25:11.267Z,10.67
2018-10-16T13:27:39.628Z,11.60
2018-10-16T13:30:09.987Z,10.23
2018-10-16T13:32:38.533Z,9.57
2018-10-16T13:35:08.826Z,10.53
2018-10-16T13:37:37.223Z,9.67
2018-10-16T13:40:06.592Z,9.17
2018-10-16T13:42:34.968Z,10.20
2018-10-16T13:45:03.697Z,10.90
2018-10-16T13:47:32.881Z,9.90
2018-10-16T13:50:01.419Z,9.80
2018-10-16T13:52:29.840Z,9.73
2018-10-16T13:54:59.079Z,10.87
2018-10-16T13:57:27.435Z,8.03
2018-10-16T13:59:56.035Z,8.77
2018-10-16T14:02:25.019Z,10.17
2018-10-16T14:04:54.025Z,9.00
2018-10-16T14:07:22.306Z,10.23
2018-10-16T14:09:50.888Z,8.57
2018-10-16T14:12:19.216Z,11.83
2018-10-16T14:14:47.530Z,12.07
2018-10-16T14:17:16.591Z,8.60
2018-10-16T14:19:44.855Z,8.70
2018-10-16T14:22:13.222Z,8.73
2018-10-16T14:24:42.464Z,8.30
2018-10-16T14:27:17.825Z,8.70
2018-10-16T14:29:49.746Z,7.97
2018-10-16T14:32:20.342Z,8.80
2018-10-16T14:34:48.675Z,7.70
2018-10-16T14:37:17.591Z,11.33
2018-10-16T14:39:46.486Z,11.47
2018-10-16T14:42:14.848Z,9.03
2018-10-16T14:44:43.875Z,7.90
2018-10-16T14:47:12.696Z,9.90
2018-10-16T14:49:40.948Z,9.03
2018-10-16T14:52:10.407Z,10.50
2018-10-16T14:54:38.620Z,9.50
2018-10-16T14:57:06.958Z,8.33
2018-10-16T14:59:35.520Z,7.50
2018-10-16T15:02:03.887Z,6.67
2018-10-16T15:04:32.188Z,10.10
2018-10-16T15:07:00.774Z,8.93
2018-10-16T15:09:29.096Z,9.83
2018-10-16T15:11:57.468Z,10.97
2018-10-16T15:14:26.237Z,6.93
2018-10-16T15:16:54.596Z,7.10
2018-10-16T15:19:22.944Z,9.17
2018-10-16T15:21:51.880Z,6.23
2018-10-16T15:24:20.161Z,8.00
2018-10-16T15:26:48.522Z,6.87
2018-10-16T15:29:17.497Z,7.20
2018-10-16T15:31:45.832Z,7.80
2018-10-16T15:34:14.212Z,8.60
2018-10-16T15:36:42.961Z,9.50
2018-10-16T15:39:12.639Z,6.33
2018-10-16T15:41:41.207Z,7.63
2018-10-16T15:44:10.481Z,9.13
2018-10-16T15:46:39.418Z,7.67
2018-10-16T15:49:07.763Z,8.87
2018-10-16T15:51:36.331Z,7.80
2018-10-16T15:54:04.951Z,7.97
2018-10-16T15:56:33.264Z,8.03
2018-10-16T15:59:02.335Z,8.00
2018-10-16T16:01:30.652Z,8.53
2018-10-16T16:03:59.057Z,8.87
2018-10-16T16:06:27.969Z,8.10
2018-10-16T16:08:56.338Z,7.73
2018-10-16T16:11:24.710Z,9.73
2018-10-16T16:13:54.252Z,12.80
2018-10-16T16:16:22.619Z,9.17
2018-10-16T16:18:50.932Z,8.13
2018-10-16T16:21:20.308Z,8.73
2018-10-16T16:23:48.612Z,9.67
2018-10-16T16:26:17.111Z,9.67
2018-10-16T16:28:46.430Z,9.40
2018-10-16T16:31:14.816Z,8.83
2018-10-16T16:33:43.176Z,7.17
2018-10-16T16:36:12.118Z,9.20
2018-10-16T16:38:40.462Z,7.23
2018-10-16T16:41:08.857Z,8.93
2018-10-16T16:43:37.791Z,11.10
2018-10-16T16:46:06.071Z,9.40
2018-10-16T16:48:34.356Z,8.37
2018-10-16T16:51:03.101Z,11.27
2018-10-16T16:53:31.380Z,8.97
2018-10-16T16:55:59.781Z,11.43
2018-10-16T16:58:28.688Z,11.90
2018-10-16T17:00:57.136Z,8.87
2018-10-16T17:03:25.405Z,8.30
2018-10-16T17:05:54.008Z,9.80
2018-10-16T17:08:22.362Z,13.73
2018-10-16T17:10:50.659Z,14.30
2018-10-16T17:13:19.464Z,12.93
2018-10-16T17:15:47.765Z,11.97
2018-10-16T17:18:16.102Z,21.77
2018-10-16T17:20:45.181Z,9.97
2018-10-16T17:23:13.468Z,10.37
2018-10-16T17:25:42.255Z,11.47
2018-10-16T17:28:10.945Z,12.90
2018-10-16T17:30:39.307Z,14.37
2018-10-16T17:33:07.684Z,12.87
2018-10-16T17:35:36.083Z,21.07
2018-10-16T17:38:04.407Z,14.27
2018-10-16T17:40:32.827Z,11.37
2018-10-16T17:43:03.033Z,15.37
2018-10-16T17:45:31.392Z,13.00
2018-10-16T17:47:59.832Z,14.50
2018-10-16T17:50:28.976Z,12.73
2018-10-16T17:52:57.507Z,12.87
2018-10-16T17:55:25.815Z,13.87
2018-10-16T17:57:55.390Z,17.47
2018-10-16T18:00:25.453Z,18.40
2018-10-16T18:02:53.783Z,13.97
2018-10-16T18:05:22.372Z,14.37
2018-10-16T18:07:50.695Z,10.97
2018-10-16T18:10:18.974Z,16.13
2018-10-16T18:12:48.082Z,12.23
2018-10-16T18:15:16.999Z,11.93
2018-10-16T18:17:45.316Z,16.77
2018-10-16T18:20:15.499Z,13.57
2018-10-16T18:22:45.190Z,12.73
2018-10-16T18:25:13.552Z,12.23
2018-10-16T18:27:42.925Z,14.63
2018-10-16T18:30:11.661Z,12.13
2018-10-16T18:32:40.217Z,14.93
2018-10-16T18:35:09.110Z,13.30
2018-10-16T18:37:37.463Z,13.00
2018-10-16T18:40:07.372Z,15.30
2018-10-16T18:42:36.188Z,15.07
2018-10-16T18:45:18.148Z,21.43
2018-10-16T18:47:47.618Z,20.23
2018-10-16T18:50:17.211Z,15.17
2018-10-16T18:52:46.181Z,15.90
2018-10-16T18:55:15.344Z,17.93
2018-10-16T18:57:43.736Z,14.87
2018-10-16T19:00:15.346Z,18.77
2018-10-16T19:02:44.135Z,20.07
2018-10-16T19:05:12.509Z,17.77
2018-10-16T19:07:41.901Z,16.80
2018-10-16T19:10:10.631Z,17.80
2018-10-16T19:12:39.762Z,15.43
2018-10-16T19:15:09.662Z,15.13
2018-10-16T19:17:38.334Z,18.67
2018-10-16T19:20:07.751Z,16.77
2018-10-16T19:22:36.054Z,16.27
2018-10-16T19:25:05.077Z,16.50
2018-10-16T19:27:33.649Z,15.97
2018-10-16T19:30:02.072Z,17.30
2018-10-16T19:32:30.928Z,18.80
2018-10-16T19:34:59.252Z,9.13
2018-10-16T19:37:27.587Z,21.07
2018-10-16T19:39:56.092Z,17.53
2018-10-16T19:42:24.365Z,18.07
2018-10-16T19:44:53.389Z,18.50
2018-10-16T19:47:22.551Z,31.80
2018-10-16T19:49:50.894Z,30.07
2018-10-16T19:52:19.201Z,26.13
2018-10-16T19:54:48.000Z,20.93
2018-10-16T19:57:17.674Z,20.40
2018-10-16T19:59:47.104Z,22.50
2018-10-16T20:02:16.095Z,19.93
2018-10-16T20:04:44.736Z,19.93
2018-10-16T20:07:13.894Z,21.70
2018-10-16T20:09:42.613Z,20.33
2018-10-16T20:12:11.252Z,19.53
2018-10-16T20:14:40.085Z,18.23
2018-10-16T20:17:09.956Z,19.60
2018-10-16T20:19:38.340Z,17.27
2018-10-16T20:22:08.821Z,18.23
2018-10-16T20:24:37.759Z,17.23
2018-10-16T20:27:06.253Z,16.67
2018-10-16T20:29:34.918Z,20.47
2018-10-16T20:32:05.135Z,17.73
2018-10-16T20:34:34.333Z,15.40
2018-10-16T20:37:02.734Z,17.47
2018-10-16T20:39:31.641Z,21.53
2018-10-16T20:42:00.018Z,20.30
2018-10-16T20:44:29.965Z,17.10
2018-10-16T20:47:25.552Z,19.10
2018-10-16T20:49:54.804Z,17.73
2018-10-16T20:52:24.141Z,15.97
2018-10-16T20:54:52.714Z,19.40
2018-10-16T20:57:21.670Z,16.80
2018-10-16T20:59:50.337Z,13.83
2018-10-16T21:02:19.459Z,16.63
2018-10-16T21:04:47.940Z,15.30
2018-10-16T21:07:16.556Z,15.60
2018-10-16T21:09:45.000Z,17.63
2018-10-16T21:12:13.319Z,14.60
2018-10-16T21:14:42.003Z,15.57
2018-10-16T21:17:10.771Z,18.23
2018-10-16T21:19:39.741Z,16.07
2018-10-16T21:22:08.329Z,16.90
2018-10-16T21:24:37.322Z,14.60
2018-10-16T21:27:08.063Z,14.10
2018-10-16T21:29:36.772Z,15.77
2018-10-16T21:32:06.502Z,14.10
2018-10-16T21:34:34.855Z,17.67
2018-10-16T21:37:03.806Z,20.47
2018-10-16T21:39:32.527Z,17.33
2018-10-16T21:42:02.033Z,22.80
2018-10-16T21:44:31.179Z,20.60
2018-10-16T21:46:59.991Z,18.00
2018-10-16T21:49:28.313Z,16.83
2018-10-16T21:51:57.050Z,19.87
2018-10-16T21:54:25.643Z,18.93
2018-10-16T21:56:54.010Z,14.70
2018-10-16T21:59:22.380Z,11.00
2018-10-16T22:01:56.371Z,10.80
2018-10-16T22:04:25.124Z,19.30
2018-10-16T22:06:53.545Z,13.73
2018-10-16T22:09:22.467Z,14.40
2018-10-16T22:11:51.226Z,19.03
2018-10-16T22:14:19.617Z,14.93
2018-10-16T22:16:48.189Z,20.03
2018-10-16T22:19:16.995Z,15.20
2018-10-16T22:21:45.257Z,16.37
2018-10-16T22:24:14.041Z,12.00
2018-10-16T22:26:42.668Z,16.50
2018-10-16T22:29:11.005Z,12.77
2018-10-16T22:31:39.536Z,19.57
2018-10-16T22:34:08.411Z,16.13
2018-10-16T22:36:36.709Z,11.60
2018-10-16T22:39:08.348Z,14.60
2018-10-16T22:41:37.129Z,11.13
2018-10-16T22:44:06.127Z,15.27
2018-10-16T22:46:35.052Z,12.10
2018-10-16T22:49:03.732Z,10.80
2018-10-16T22:51:32.701Z,8.73
2018-10-16T22:54:01.268Z,19.20
2018-10-16T22:56:29.982Z,10.77
2018-10-16T22:58:58.460Z,9.87
2018-10-16T23:01:26.941Z,18.03
2018-10-16T23:03:55.519Z,11.43
2018-10-16T23:06:23.834Z,10.93
2018-10-16T23:08:52.432Z,11.93
2018-10-16T23:11:21.572Z,10.73
2018-10-16T23:13:49.828Z,13.60
2018-10-16T23:16:18.692Z,8.77
2018-10-16T23:18:47.420Z,12.57
2018-10-16T23:21:15.722Z,9.97
2018-10-16T23:23:44.266Z,20.00
2018-10-16T23:26:12.817Z,21.27
2018-10-16T23:28:41.793Z,23.00
2018-10-16T23:31:11.121Z,14.83
2018-10-16T23:33:39.673Z,15.00
2018-10-16T23:36:07.967Z,24.50
2018-10-16T23:38:36.851Z,9.00
2018-10-16T23:41:05.397Z,11.87
2018-10-16T23:43:33.776Z,27.57
2018-10-16T23:46:02.735Z,25.87
2018-10-16T23:48:31.365Z,15.30
2018-10-16T23:50:59.689Z,20.67
2018-10-16T23:53:28.320Z,15.47
2018-10-16T23:55:56.755Z,24.27
2018-10-16T23:58:25.189Z,27.67
